createdAt,value
2017-12-26T00:00:20.444Z,73.22
2017-12-26T00:01:26.189Z,73.22
2017-12-26T00:02:31.912Z,73.12
2017-12-26T00:03:38.404Z,73.06
2017-12-26T00:04:44.153Z,73.11
2017-12-26T00:05:49.895Z,73.17
2017-12-26T00:06:55.628Z,73.16
2017-12-26T00:08:01.363Z,73.20
2017-12-26T00:09:06.766Z,73.17
2017-12-26T00:10:13.296Z,73.21
2017-12-26T00:11:19.011Z,73.23
2017-12-26T00:12:24.738Z,73.17
2017-12-26T00:13:30.460Z,73.22
2017-12-26T00:14:36.196Z,73.22
2017-12-26T00:15:41.958Z,73.28
2017-12-26T00:16:47.702Z,73.28
2017-12-26T00:17:53.443Z,73.24
2017-12-26T00:18:59.266Z,73.17
2017-12-26T00:20:04.674Z,73.20
2017-12-26T00:21:11.193Z,73.17
2017-12-26T00:22:16.923Z,73.22
2017-12-26T00:23:22.699Z,73.25
2017-12-26T00:24:28.431Z,73.25
2017-12-26T00:25:34.181Z,73.23
2017-12-26T00:26:39.932Z,73.19
2017-12-26T00:27:45.663Z,73.18
2017-12-26T00:28:51.418Z,73.23
2017-12-26T00:29:57.719Z,73.26
2017-12-26T00:31:03.461Z,73.30
2017-12-26T00:32:09.208Z,73.33
2017-12-26T00:33:15.022Z,73.31
2017-12-26T00:34:21.491Z,73.24
2017-12-26T00:35:27.196Z,73.26
2017-12-26T00:36:33.690Z,73.33
2017-12-26T00:37:39.437Z,73.36
2017-12-26T00:38:45.156Z,73.36
2017-12-26T00:39:51.656Z,73.38
2017-12-26T00:40:57.387Z,73.38
2017-12-26T00:42:03.122Z,73.38
2017-12-26T00:43:08.907Z,73.33
2017-12-26T00:44:14.686Z,73.32
2017-12-26T00:45:20.419Z,73.32
2017-12-26T00:46:26.911Z,73.27
2017-12-26T00:47:32.647Z,73.22
2017-12-26T00:48:38.396Z,73.24
2017-12-26T00:49:44.120Z,73.28
2017-12-26T00:50:49.844Z,73.27
2017-12-26T00:51:55.588Z,73.17
2017-12-26T00:53:02.051Z,73.12
2017-12-26T00:54:07.794Z,73.13
2017-12-26T00:55:13.504Z,73.04
2017-12-26T00:56:19.245Z,73.06
2017-12-26T00:57:24.995Z,72.98
2017-12-26T00:58:31.496Z,72.96
2017-12-26T00:59:37.220Z,73.02
2017-12-26T01:00:42.950Z,73.00
2017-12-26T01:01:49.420Z,73.06
2017-12-26T01:02:55.145Z,73.02
2017-12-26T01:04:01.665Z,73.01
2017-12-26T01:05:07.414Z,72.97
2017-12-26T01:06:13.138Z,73.03
2017-12-26T01:07:18.856Z,73.10
2017-12-26T01:08:24.565Z,73.06
2017-12-26T01:09:31.044Z,73.12
2017-12-26T01:10:36.805Z,73.13
2017-12-26T01:11:42.546Z,73.08
2017-12-26T01:12:48.253Z,73.05
2017-12-26T01:13:54.759Z,73.09
2017-12-26T01:15:00.466Z,73.05
2017-12-26T01:16:06.215Z,73.01
2017-12-26T01:17:11.933Z,72.95
2017-12-26T01:18:18.421Z,72.94
2017-12-26T01:19:24.149Z,72.92
2017-12-26T01:20:29.872Z,72.81
2017-12-26T01:21:35.609Z,72.72
2017-12-26T01:22:42.122Z,72.63
2017-12-26T01:23:47.838Z,72.64
2017-12-26T01:24:53.544Z,72.59
2017-12-26T01:26:00.039Z,72.56
2017-12-26T01:27:05.782Z,72.59
2017-12-26T01:28:11.491Z,72.56
2017-12-26T01:29:17.995Z,72.60
2017-12-26T01:30:23.932Z,72.57
2017-12-26T01:31:29.665Z,72.47
2017-12-26T01:32:35.411Z,72.35
2017-12-26T01:33:41.134Z,72.26
2017-12-26T01:34:46.854Z,72.21
2017-12-26T01:35:53.352Z,72.21
2017-12-26T01:36:59.725Z,72.16
2017-12-26T01:38:05.483Z,72.20
2017-12-26T01:39:11.227Z,72.21
2017-12-26T01:40:18.453Z,72.19
2017-12-26T01:41:24.181Z,72.22
2017-12-26T01:42:29.911Z,72.24
2017-12-26T01:43:36.482Z,72.20
2017-12-26T01:44:42.199Z,72.14
2017-12-26T01:45:47.912Z,72.12
2017-12-26T01:46:55.163Z,72.10
2017-12-26T01:48:00.891Z,72.10
2017-12-26T01:49:06.651Z,72.10
2017-12-26T01:50:12.375Z,72.13
2017-12-26T01:51:18.116Z,72.13
2017-12-26T01:52:23.570Z,72.15
2017-12-26T01:53:29.285Z,72.18
2017-12-26T01:54:35.038Z,72.15
2017-12-26T01:55:40.754Z,72.05
2017-12-26T01:56:47.246Z,72.00
2017-12-26T01:57:52.982Z,72.02
2017-12-26T01:58:58.710Z,71.98
2017-12-26T02:00:04.463Z,71.91
2017-12-26T02:01:10.177Z,71.84
2017-12-26T02:02:16.661Z,71.78
2017-12-26T02:03:22.391Z,71.82
2017-12-26T02:04:28.121Z,71.85
2017-12-26T02:05:34.632Z,71.87
2017-12-26T02:06:40.359Z,71.85
2017-12-26T02:07:47.588Z,71.80
2017-12-26T02:08:54.070Z,71.74
2017-12-26T02:09:59.806Z,71.78
2017-12-26T02:11:05.545Z,71.79
2017-12-26T02:12:11.381Z,71.73
2017-12-26T02:13:16.899Z,71.74
2017-12-26T02:14:23.377Z,71.74
2017-12-26T02:15:29.867Z,71.74
2017-12-26T02:16:35.604Z,71.74
2017-12-26T02:17:41.328Z,71.73
2017-12-26T02:18:47.063Z,71.74
2017-12-26T02:19:53.558Z,71.74
2017-12-26T02:20:59.290Z,71.73
2017-12-26T02:22:05.012Z,71.72
2017-12-26T02:23:10.728Z,71.70
2017-12-26T02:24:17.209Z,71.70
2017-12-26T02:25:22.949Z,71.76
2017-12-26T02:26:28.720Z,71.74
2017-12-26T02:27:34.477Z,71.69
2017-12-26T02:28:40.232Z,71.72
2017-12-26T02:29:45.949Z,71.70
2017-12-26T02:30:51.679Z,71.72
2017-12-26T02:31:57.428Z,71.79
2017-12-26T02:33:03.200Z,71.80
2017-12-26T02:34:08.913Z,71.81
2017-12-26T02:35:14.629Z,71.77
2017-12-26T02:36:20.328Z,71.78
2017-12-26T02:37:26.811Z,71.79
2017-12-26T02:38:32.558Z,71.79
2017-12-26T02:39:38.073Z,71.79
2017-12-26T02:40:44.592Z,71.77
2017-12-26T02:41:50.301Z,71.73
2017-12-26T02:42:56.043Z,71.76
2017-12-26T02:44:01.776Z,71.76
2017-12-26T02:45:07.488Z,71.77
2017-12-26T02:46:13.210Z,71.77
2017-12-26T02:47:18.934Z,71.71
2017-12-26T02:48:24.667Z,71.75
2017-12-26T02:49:30.423Z,71.78
2017-12-26T02:50:36.124Z,71.74
2017-12-26T02:51:41.852Z,71.73
2017-12-26T02:52:47.578Z,71.79
2017-12-26T02:53:54.063Z,71.89
2017-12-26T02:54:59.816Z,71.91
2017-12-26T02:56:05.524Z,71.93
2017-12-26T02:57:12.034Z,71.97
2017-12-26T02:58:17.756Z,72.03
2017-12-26T02:59:23.479Z,72.01
2017-12-26T03:00:29.989Z,71.98
2017-12-26T03:01:35.692Z,71.95
2017-12-26T03:02:41.394Z,71.96
2017-12-26T03:03:47.887Z,72.00
2017-12-26T03:04:53.632Z,72.14
2017-12-26T03:05:59.175Z,72.23
2017-12-26T03:07:04.889Z,72.23
2017-12-26T03:08:11.357Z,72.30
2017-12-26T03:09:17.180Z,72.27
2017-12-26T03:10:23.651Z,72.30
2017-12-26T03:11:29.381Z,72.40
2017-12-26T03:12:35.884Z,72.47
2017-12-26T03:13:41.597Z,72.54
2017-12-26T03:14:47.318Z,72.44
2017-12-26T03:15:53.814Z,72.49
2017-12-26T03:16:59.553Z,72.48
2017-12-26T03:18:05.271Z,72.52
2017-12-26T03:19:10.985Z,72.52
2017-12-26T03:20:17.487Z,72.55
2017-12-26T03:21:23.206Z,72.66
2017-12-26T03:22:28.956Z,72.75
2017-12-26T03:23:34.739Z,72.74
2017-12-26T03:24:40.791Z,72.82
2017-12-26T03:25:46.529Z,72.89
2017-12-26T03:26:52.263Z,73.09
2017-12-26T03:27:58.008Z,73.06
2017-12-26T03:29:03.727Z,73.14
2017-12-26T03:30:09.441Z,73.19
2017-12-26T03:31:15.179Z,73.13
2017-12-26T03:32:21.683Z,73.16
2017-12-26T03:33:27.425Z,73.20
2017-12-26T03:34:33.172Z,73.11
2017-12-26T03:35:38.900Z,73.11
2017-12-26T03:36:44.642Z,73.12
2017-12-26T03:37:50.388Z,73.08
2017-12-26T03:38:56.152Z,73.07
2017-12-26T03:40:01.866Z,73.13
2017-12-26T03:41:07.602Z,73.15
2017-12-26T03:42:13.308Z,73.25
2017-12-26T03:43:19.031Z,73.24
2017-12-26T03:44:25.542Z,73.20
2017-12-26T03:45:31.275Z,73.25
2017-12-26T03:46:37.010Z,73.27
2017-12-26T03:47:42.753Z,73.21
2017-12-26T03:48:48.476Z,73.23
2017-12-26T03:49:54.221Z,73.11
2017-12-26T03:51:00.001Z,73.11
2017-12-26T03:52:05.712Z,73.13
2017-12-26T03:53:11.429Z,73.12
2017-12-26T03:54:18.000Z,73.06
2017-12-26T03:55:23.743Z,73.09
2017-12-26T03:56:29.469Z,73.16
2017-12-26T03:57:35.952Z,73.15
2017-12-26T03:58:41.697Z,73.15
2017-12-26T03:59:47.445Z,73.17
2017-12-26T04:00:53.175Z,73.20
2017-12-26T04:01:58.897Z,73.23
2017-12-26T04:03:05.399Z,73.28
2017-12-26T04:04:11.131Z,73.28
2017-12-26T04:05:16.865Z,73.29
2017-12-26T04:06:22.613Z,73.27
2017-12-26T04:07:28.335Z,73.27
2017-12-26T04:08:34.063Z,73.31
2017-12-26T04:09:40.574Z,73.32
2017-12-26T04:10:46.309Z,73.28
2017-12-26T04:11:52.041Z,73.25
2017-12-26T04:12:57.774Z,73.20
2017-12-26T04:14:03.505Z,73.11
2017-12-26T04:15:09.243Z,73.02
2017-12-26T04:16:15.012Z,72.93
2017-12-26T04:17:20.757Z,72.85
2017-12-26T04:18:26.488Z,72.79
2017-12-26T04:19:32.222Z,72.71
2017-12-26T04:20:37.967Z,72.66
2017-12-26T04:21:43.712Z,72.62
2017-12-26T04:22:49.479Z,72.55
2017-12-26T04:23:55.216Z,72.49
2017-12-26T04:25:00.946Z,72.37
2017-12-26T04:26:06.676Z,72.28
2017-12-26T04:27:12.427Z,72.23
2017-12-26T04:28:18.170Z,72.24
2017-12-26T04:29:23.911Z,72.29
2017-12-26T04:30:29.629Z,72.22
2017-12-26T04:31:35.363Z,72.24
2017-12-26T04:32:41.095Z,72.21
2017-12-26T04:33:46.873Z,72.29
2017-12-26T04:34:52.594Z,72.26
2017-12-26T04:35:58.333Z,72.27
2017-12-26T04:37:04.085Z,72.22
2017-12-26T04:38:10.253Z,72.25
2017-12-26T04:39:16.016Z,72.30
2017-12-26T04:40:21.746Z,72.37
2017-12-26T04:41:27.466Z,72.50
2017-12-26T04:42:33.204Z,72.56
2017-12-26T04:43:38.940Z,72.75
2017-12-26T04:44:44.676Z,72.79
2017-12-26T04:45:50.415Z,72.84
2017-12-26T04:46:56.152Z,72.95
2017-12-26T04:48:01.877Z,73.23
2017-12-26T04:49:07.619Z,73.20
2017-12-26T04:50:13.369Z,73.39
2017-12-26T04:51:19.100Z,73.49
2017-12-26T04:52:24.836Z,73.57
2017-12-26T04:53:31.352Z,73.66
2017-12-26T04:54:37.096Z,73.70
2017-12-26T04:55:42.867Z,73.76
2017-12-26T04:56:49.360Z,73.74
2017-12-26T04:57:55.100Z,73.83
2017-12-26T04:59:00.847Z,73.88
2017-12-26T05:00:06.588Z,73.89
2017-12-26T05:01:12.330Z,73.85
2017-12-26T05:02:18.147Z,73.80
2017-12-26T05:03:24.618Z,73.89
2017-12-26T05:04:30.340Z,73.99
2017-12-26T05:05:36.847Z,74.05
2017-12-26T05:06:42.602Z,74.00
2017-12-26T05:07:48.346Z,73.99
2017-12-26T05:08:54.087Z,74.01
2017-12-26T05:09:59.810Z,73.99
2017-12-26T05:11:05.524Z,73.89
2017-12-26T05:12:11.308Z,73.89
2017-12-26T05:13:17.872Z,73.85
2017-12-26T05:14:24.352Z,73.84
2017-12-26T05:15:30.851Z,73.79
2017-12-26T05:16:36.599Z,73.77
2017-12-26T05:17:42.341Z,73.79
2017-12-26T05:18:48.067Z,73.80
2017-12-26T05:19:53.795Z,73.77
2017-12-26T05:20:59.556Z,73.77
2017-12-26T05:22:05.276Z,73.76
2017-12-26T05:23:11.043Z,73.74
2017-12-26T05:24:16.756Z,73.77
2017-12-26T05:25:22.481Z,73.76
2017-12-26T05:26:28.978Z,73.86
2017-12-26T05:27:34.690Z,73.90
2017-12-26T05:28:40.446Z,73.98
2017-12-26T05:29:46.215Z,74.03
2017-12-26T05:30:51.948Z,74.03
2017-12-26T05:31:57.667Z,74.06
2017-12-26T05:33:03.381Z,74.10
2017-12-26T05:34:09.962Z,74.13
2017-12-26T05:35:15.689Z,74.22
2017-12-26T05:36:22.183Z,74.31
2017-12-26T05:37:27.927Z,74.29
2017-12-26T05:38:33.657Z,74.26
2017-12-26T05:39:39.401Z,74.25
2017-12-26T05:40:45.122Z,74.38
2017-12-26T05:41:51.621Z,74.46
2017-12-26T05:42:57.343Z,74.54
2017-12-26T05:44:03.074Z,74.56
2017-12-26T05:45:08.836Z,74.56
2017-12-26T05:46:14.549Z,74.68
2017-12-26T05:47:20.286Z,74.65
2017-12-26T05:48:26.012Z,74.71
2017-12-26T05:49:32.497Z,74.69
2017-12-26T05:50:38.240Z,74.69
2017-12-26T05:51:43.958Z,74.79
2017-12-26T05:52:50.450Z,74.89
2017-12-26T05:53:56.173Z,74.84
2017-12-26T05:55:02.013Z,74.92
2017-12-26T05:56:07.762Z,74.85
2017-12-26T05:57:13.512Z,74.92
2017-12-26T05:58:19.267Z,74.89
2017-12-26T05:59:25.028Z,74.88
2017-12-26T06:00:30.768Z,74.81
2017-12-26T06:01:36.536Z,74.87
2017-12-26T06:02:43.047Z,74.97
2017-12-26T06:03:48.767Z,74.97
2017-12-26T06:04:54.494Z,74.99
2017-12-26T06:06:00.987Z,75.06
2017-12-26T06:07:06.737Z,75.09
2017-12-26T06:08:12.466Z,75.15
2017-12-26T06:09:18.207Z,75.21
2017-12-26T06:10:23.950Z,75.31
2017-12-26T06:11:29.672Z,75.31
2017-12-26T06:12:35.431Z,75.21
2017-12-26T06:13:41.381Z,75.24
2017-12-26T06:14:47.115Z,75.27
2017-12-26T06:15:52.863Z,75.29
2017-12-26T06:16:58.859Z,75.23
2017-12-26T06:18:05.446Z,75.38
2017-12-26T06:19:11.183Z,75.39
2017-12-26T06:20:16.897Z,75.50
2017-12-26T06:21:23.711Z,75.53
2017-12-26T06:22:29.431Z,75.65
2017-12-26T06:23:35.199Z,75.74
2017-12-26T06:24:40.603Z,75.96
2017-12-26T06:25:46.339Z,75.93
2017-12-26T06:26:52.843Z,76.01
2017-12-26T06:27:58.584Z,75.92
2017-12-26T06:29:04.337Z,75.92
2017-12-26T06:30:10.061Z,75.93
2017-12-26T06:31:15.777Z,75.90
2017-12-26T06:32:21.517Z,75.90
2017-12-26T06:33:27.236Z,75.94
2017-12-26T06:34:33.748Z,75.93
2017-12-26T06:35:39.459Z,75.97
2017-12-26T06:36:45.204Z,75.89
2017-12-26T06:37:50.933Z,75.86
2017-12-26T06:38:56.687Z,75.86
2017-12-26T06:40:02.563Z,75.90
2017-12-26T06:41:08.357Z,75.86
2017-12-26T06:42:14.077Z,75.82
2017-12-26T06:43:20.579Z,75.84
2017-12-26T06:44:26.317Z,75.79
2017-12-26T06:45:32.080Z,75.76
2017-12-26T06:46:37.837Z,75.76
2017-12-26T06:47:43.555Z,75.75
2017-12-26T06:48:49.299Z,75.79
2017-12-26T06:49:55.032Z,75.73
2017-12-26T06:51:00.774Z,75.71
2017-12-26T06:52:06.506Z,75.66
2017-12-26T06:53:12.231Z,75.62
2017-12-26T06:54:17.963Z,75.60
2017-12-26T06:55:24.472Z,75.48
2017-12-26T06:56:30.231Z,75.42
2017-12-26T06:57:35.957Z,75.37
2017-12-26T06:58:41.690Z,75.33
2017-12-26T06:59:47.436Z,75.39
2017-12-26T07:00:53.151Z,75.31
2017-12-26T07:01:58.918Z,75.25
2017-12-26T07:03:04.656Z,75.11
2017-12-26T07:04:10.383Z,75.08
2017-12-26T07:05:16.119Z,74.96
2017-12-26T07:06:21.837Z,74.86
2017-12-26T07:07:28.350Z,74.75
2017-12-26T07:08:34.108Z,74.66
2017-12-26T07:09:39.272Z,74.62
2017-12-26T07:10:44.988Z,74.56
2017-12-26T07:11:51.576Z,74.57
2017-12-26T07:12:57.336Z,74.54
2017-12-26T07:14:03.060Z,74.50
2017-12-26T07:15:08.786Z,74.46
2017-12-26T07:16:15.271Z,74.37
2017-12-26T07:17:21.020Z,74.30
2017-12-26T07:18:26.779Z,74.29
2017-12-26T07:19:37.950Z,74.31
2017-12-26T07:20:49.111Z,74.28
2017-12-26T07:22:00.305Z,74.30
2017-12-26T07:23:06.040Z,74.32
2017-12-26T07:24:11.801Z,74.32
2017-12-26T07:25:18.280Z,74.32
2017-12-26T07:26:24.048Z,74.26
2017-12-26T07:27:29.585Z,74.18
2017-12-26T07:28:35.302Z,74.10
2017-12-26T07:29:40.894Z,74.03
2017-12-26T07:30:47.397Z,73.92
2017-12-26T07:31:53.108Z,73.84
2017-12-26T07:32:59.611Z,73.77
2017-12-26T07:34:05.352Z,73.63
2017-12-26T07:35:11.101Z,73.58
2017-12-26T07:36:16.834Z,73.53
2017-12-26T07:37:22.542Z,73.37
2017-12-26T07:38:29.118Z,73.32
2017-12-26T07:39:34.841Z,73.24
2017-12-26T07:40:41.347Z,73.08
2017-12-26T07:41:47.066Z,73.07
2017-12-26T07:42:52.791Z,72.98
2017-12-26T07:43:59.291Z,72.87
2017-12-26T07:45:04.674Z,72.80
2017-12-26T07:46:11.190Z,72.75
2017-12-26T07:47:16.935Z,72.71
2017-12-26T07:48:22.662Z,72.58
2017-12-26T07:49:28.407Z,72.48
2017-12-26T07:50:34.124Z,72.40
2017-12-26T07:51:39.912Z,72.34
2017-12-26T07:52:46.513Z,72.28
2017-12-26T07:53:52.676Z,72.19
2017-12-26T07:54:58.423Z,72.07
2017-12-26T07:56:04.162Z,72.07
2017-12-26T07:57:09.918Z,72.03
2017-12-26T07:58:15.651Z,71.98
2017-12-26T07:59:21.360Z,71.89
2017-12-26T08:00:28.800Z,71.83
2017-12-26T08:01:34.527Z,71.85
2017-12-26T08:02:40.323Z,71.75
2017-12-26T08:03:46.104Z,71.67
2017-12-26T08:04:51.715Z,71.68
2017-12-26T08:05:57.442Z,71.65
2017-12-26T08:07:03.916Z,71.56
2017-12-26T08:08:10.435Z,71.55
2017-12-26T08:09:16.156Z,71.62
2017-12-26T08:10:21.893Z,71.59
2017-12-26T08:11:27.626Z,71.55
2017-12-26T08:12:33.375Z,71.50
2017-12-26T08:13:39.130Z,71.47
2017-12-26T08:14:44.867Z,71.49
2017-12-26T08:15:50.577Z,71.40
2017-12-26T08:16:56.310Z,71.36
2017-12-26T08:18:02.045Z,71.31
2017-12-26T08:19:08.740Z,71.26
2017-12-26T08:20:14.463Z,71.25
2017-12-26T08:21:20.183Z,71.19
2017-12-26T08:22:26.491Z,71.13
2017-12-26T08:23:32.229Z,70.92
2017-12-26T08:24:37.970Z,70.78
2017-12-26T08:25:43.683Z,70.71
2017-12-26T08:26:49.717Z,70.58
2017-12-26T08:27:55.484Z,70.46
2017-12-26T08:29:01.202Z,70.22
2017-12-26T08:30:07.705Z,70.08
2017-12-26T08:31:13.422Z,69.92
2017-12-26T08:32:19.892Z,69.82
2017-12-26T08:33:25.629Z,69.72
2017-12-26T08:34:31.358Z,69.64
2017-12-26T08:35:37.874Z,69.49
2017-12-26T08:36:43.609Z,69.47
2017-12-26T08:37:49.335Z,69.44
2017-12-26T08:38:55.064Z,69.34
2017-12-26T08:40:00.822Z,69.27
2017-12-26T08:41:07.085Z,69.28
2017-12-26T08:42:12.812Z,69.25
2017-12-26T08:43:18.825Z,69.18
2017-12-26T08:44:25.303Z,69.18
2017-12-26T08:45:31.261Z,69.08
2017-12-26T08:46:37.136Z,69.02
2017-12-26T08:47:43.858Z,69.08
2017-12-26T08:48:49.586Z,69.07
2017-12-26T08:49:55.324Z,69.01
2017-12-26T08:51:01.123Z,68.94
2017-12-26T08:52:06.876Z,68.93
2017-12-26T08:53:12.610Z,68.85
2017-12-26T08:54:18.325Z,68.81
2017-12-26T08:55:24.051Z,68.72
2017-12-26T08:56:29.797Z,68.69
2017-12-26T08:57:35.579Z,68.62
2017-12-26T08:58:41.291Z,68.52
2017-12-26T08:59:47.016Z,68.33
2017-12-26T09:00:52.721Z,68.08
2017-12-26T09:01:59.200Z,67.62
2017-12-26T09:03:05.732Z,67.12
2017-12-26T09:04:12.336Z,66.53
2017-12-26T09:05:18.276Z,65.37
2017-12-26T09:06:24.103Z,64.48
2017-12-26T09:07:29.928Z,63.35
2017-12-26T09:08:37.812Z,62.58
2017-12-26T09:09:44.875Z,62.16
2017-12-26T09:10:51.461Z,61.47
2017-12-26T09:11:58.017Z,61.39
2017-12-26T09:13:04.595Z,60.85
2017-12-26T09:14:10.443Z,60.22
2017-12-26T09:15:16.243Z,59.78
2017-12-26T09:16:22.244Z,59.35
2017-12-26T09:17:28.460Z,59.11
2017-12-26T09:18:35.330Z,58.77
2017-12-26T09:19:42.215Z,58.47
2017-12-26T09:20:48.031Z,58.33
2017-12-26T09:21:54.758Z,57.84
2017-12-26T09:23:00.555Z,57.45
2017-12-26T09:24:06.623Z,57.27
2017-12-26T09:25:13.285Z,56.86
2017-12-26T09:26:23.236Z,56.73
2017-12-26T09:27:29.566Z,56.68
2017-12-26T09:28:35.373Z,56.27
2017-12-26T09:29:41.572Z,56.02
2017-12-26T09:30:48.215Z,55.91
2017-12-26T09:31:54.181Z,55.65
2017-12-26T09:33:00.057Z,55.41
2017-12-26T09:34:05.793Z,55.10
2017-12-26T09:35:11.535Z,54.98
2017-12-26T09:36:17.304Z,54.92
2017-12-26T09:37:23.024Z,54.74
2017-12-26T09:38:29.386Z,54.73
2017-12-26T09:39:35.367Z,54.83
2017-12-26T09:40:41.908Z,54.69
2017-12-26T09:41:47.890Z,54.59
2017-12-26T09:42:53.637Z,54.75
2017-12-26T09:43:59.366Z,54.57
2017-12-26T09:45:05.107Z,54.61
2017-12-26T09:46:10.847Z,54.53
2017-12-26T09:47:16.265Z,54.33
2017-12-26T09:48:22.752Z,54.39
2017-12-26T09:49:29.423Z,54.38
2017-12-26T09:50:35.181Z,54.21
2017-12-26T09:51:40.930Z,54.29
2017-12-26T09:52:46.703Z,54.39
2017-12-26T09:53:53.196Z,54.38
2017-12-26T09:54:58.945Z,54.51
2017-12-26T09:56:04.668Z,54.53
2017-12-26T09:57:10.403Z,54.58
2017-12-26T09:58:16.197Z,54.50
2017-12-26T09:59:21.962Z,54.40
2017-12-26T10:00:28.046Z,54.34
2017-12-26T10:01:34.263Z,54.42
2017-12-26T10:02:40.658Z,54.58
2017-12-26T10:03:46.648Z,54.62
2017-12-26T10:04:52.744Z,54.65
2017-12-26T10:05:59.483Z,54.76
2017-12-26T10:07:05.607Z,54.62
2017-12-26T10:08:11.696Z,54.69
2017-12-26T10:09:17.682Z,54.75
2017-12-26T10:10:23.745Z,54.75
2017-12-26T10:11:29.953Z,54.79
2017-12-26T10:12:36.004Z,54.77
2017-12-26T10:13:42.139Z,54.79
2017-12-26T10:14:48.253Z,54.83
2017-12-26T10:15:56.296Z,54.88
2017-12-26T10:17:02.347Z,54.96
2017-12-26T10:18:08.253Z,54.97
2017-12-26T10:19:15.123Z,54.92
2017-12-26T10:20:22.131Z,54.95
2017-12-26T10:21:28.080Z,54.81
2017-12-26T10:22:34.380Z,54.89
2017-12-26T10:23:40.921Z,54.89
2017-12-26T10:24:46.664Z,54.96
2017-12-26T10:25:52.411Z,55.06
2017-12-26T10:26:58.140Z,55.10
2017-12-26T10:28:03.905Z,55.03
2017-12-26T10:29:09.656Z,55.04
2017-12-26T10:30:15.381Z,54.90
2017-12-26T10:31:21.159Z,54.98
2017-12-26T10:32:27.667Z,54.93
2017-12-26T10:33:33.392Z,55.00
2017-12-26T10:34:39.121Z,55.20
2017-12-26T10:35:44.863Z,55.31
2017-12-26T10:36:50.613Z,55.40
2017-12-26T10:37:56.355Z,55.47
2017-12-26T10:39:02.092Z,55.50
2017-12-26T10:40:07.825Z,55.56
2017-12-26T10:41:13.552Z,55.61
2017-12-26T10:42:20.082Z,55.55
2017-12-26T10:43:25.820Z,55.58
2017-12-26T10:44:31.541Z,55.46
2017-12-26T10:45:37.285Z,55.50
2017-12-26T10:46:43.008Z,55.50
2017-12-26T10:47:48.765Z,55.74
2017-12-26T10:48:54.497Z,55.89
2017-12-26T10:50:00.229Z,55.89
2017-12-26T10:51:06.834Z,55.85
2017-12-26T10:52:12.564Z,55.87
2017-12-26T10:53:18.355Z,55.92
2017-12-26T10:54:24.453Z,55.92
2017-12-26T10:55:30.191Z,56.07
2017-12-26T10:56:35.936Z,56.14
2017-12-26T10:57:41.683Z,56.16
2017-12-26T10:58:47.432Z,56.23
2017-12-26T10:59:53.165Z,56.39
2017-12-26T11:00:59.185Z,56.61
2017-12-26T11:02:06.234Z,56.79
2017-12-26T11:03:12.279Z,56.81
2017-12-26T11:04:18.534Z,56.85
2017-12-26T11:05:24.655Z,56.88
2017-12-26T11:06:32.472Z,57.00
2017-12-26T11:07:38.542Z,57.12
2017-12-26T11:08:44.273Z,57.21
2017-12-26T11:09:50.025Z,57.31
2017-12-26T11:10:55.755Z,57.40
2017-12-26T11:12:01.526Z,57.44
2017-12-26T11:13:07.254Z,57.68
2017-12-26T11:14:12.999Z,57.82
2017-12-26T11:15:18.748Z,57.88
2017-12-26T11:16:25.243Z,58.00
2017-12-26T11:17:31.012Z,58.13
2017-12-26T11:18:36.751Z,58.27
2017-12-26T11:19:42.473Z,58.45
2017-12-26T11:20:48.234Z,58.57
2017-12-26T11:21:53.961Z,58.75
2017-12-26T11:23:00.477Z,58.96
2017-12-26T11:24:07.958Z,59.09
2017-12-26T11:25:13.886Z,59.36
2017-12-26T11:26:19.759Z,59.48
2017-12-26T11:27:25.501Z,59.59
2017-12-26T11:28:31.233Z,59.66
2017-12-26T11:29:37.002Z,59.85
2017-12-26T11:30:42.744Z,59.96
2017-12-26T11:31:49.276Z,59.95
2017-12-26T11:32:55.025Z,59.93
2017-12-26T11:34:00.751Z,60.07
2017-12-26T11:35:06.505Z,60.33
2017-12-26T11:36:14.227Z,60.61
2017-12-26T11:37:20.885Z,60.88
2017-12-26T11:38:27.437Z,61.07
2017-12-26T11:39:33.963Z,61.21
2017-12-26T11:40:39.726Z,61.16
2017-12-26T11:41:46.234Z,61.12
2017-12-26T11:42:53.282Z,61.06
2017-12-26T11:44:00.422Z,61.10
2017-12-26T11:45:06.257Z,61.04
2017-12-26T11:46:12.003Z,61.07
2017-12-26T11:47:17.879Z,61.16
2017-12-26T11:48:24.412Z,61.22
2017-12-26T11:49:30.192Z,61.28
2017-12-26T11:50:38.394Z,61.31
2017-12-26T11:51:44.159Z,61.20
2017-12-26T11:52:49.889Z,61.20
2017-12-26T11:53:55.642Z,61.18
2017-12-26T11:55:01.393Z,61.17
2017-12-26T11:56:07.121Z,61.45
2017-12-26T11:57:12.878Z,61.55
2017-12-26T11:58:18.606Z,61.46
2017-12-26T11:59:24.394Z,61.46
2017-12-26T12:00:30.134Z,61.34
2017-12-26T12:01:35.884Z,61.46
2017-12-26T12:02:42.396Z,61.63
2017-12-26T12:03:48.143Z,61.61
2017-12-26T12:04:53.912Z,61.59
2017-12-26T12:05:59.656Z,61.52
2017-12-26T12:07:06.157Z,61.51
2017-12-26T12:08:11.936Z,61.37
2017-12-26T12:09:17.846Z,61.09
2017-12-26T12:10:23.597Z,61.10
2017-12-26T12:11:29.343Z,60.96
2017-12-26T12:12:35.086Z,60.89
2017-12-26T12:13:40.827Z,60.73
2017-12-26T12:14:46.571Z,60.72
2017-12-26T12:15:52.317Z,60.67
2017-12-26T12:16:58.101Z,60.67
2017-12-26T12:18:04.590Z,60.55
2017-12-26T12:19:10.331Z,60.32
2017-12-26T12:20:16.077Z,60.26
2017-12-26T12:21:21.847Z,60.11
2017-12-26T12:22:27.569Z,59.87
2017-12-26T12:23:33.324Z,59.73
2017-12-26T12:24:39.092Z,59.68
2017-12-26T12:25:44.816Z,59.66
2017-12-26T12:26:50.572Z,59.52
2017-12-26T12:27:56.295Z,59.32
2017-12-26T12:29:02.044Z,59.16
2017-12-26T12:30:07.778Z,59.19
2017-12-26T12:31:13.520Z,59.10
2017-12-26T12:32:19.270Z,59.08
2017-12-26T12:33:25.240Z,59.22
2017-12-26T12:34:30.989Z,59.27
2017-12-26T12:35:36.743Z,59.36
2017-12-26T12:36:43.237Z,59.48
2017-12-26T12:37:49.008Z,59.53
2017-12-26T12:38:55.434Z,59.54
2017-12-26T12:40:01.988Z,59.55
2017-12-26T12:41:07.743Z,59.55
2017-12-26T12:42:13.496Z,59.46
2017-12-26T12:43:19.258Z,59.42
2017-12-26T12:44:25.019Z,59.36
2017-12-26T12:45:31.514Z,59.27
2017-12-26T12:46:37.238Z,59.15
2017-12-26T12:47:42.999Z,59.07
2017-12-26T12:48:48.764Z,58.98
2017-12-26T12:49:54.489Z,58.91
2017-12-26T12:51:00.218Z,58.74
2017-12-26T12:52:05.941Z,58.59
2017-12-26T12:53:11.685Z,58.60
2017-12-26T12:54:17.446Z,58.48
2017-12-26T12:55:23.169Z,58.46
2017-12-26T12:56:28.905Z,58.41
2017-12-26T12:57:34.644Z,58.37
2017-12-26T12:58:40.408Z,58.36
2017-12-26T12:59:46.215Z,58.38
2017-12-26T13:00:52.696Z,58.47
2017-12-26T13:01:58.745Z,58.52
2017-12-26T13:03:04.524Z,58.50
2017-12-26T13:04:10.309Z,58.39
2017-12-26T13:05:16.896Z,58.61
2017-12-26T13:06:22.767Z,58.60
2017-12-26T13:07:29.191Z,58.72
2017-12-26T13:08:35.064Z,58.85
2017-12-26T13:09:41.230Z,58.94
2017-12-26T13:10:47.910Z,59.02
2017-12-26T13:11:55.198Z,59.11
2017-12-26T13:13:01.273Z,59.31
2017-12-26T13:14:07.116Z,59.34
2017-12-26T13:15:12.838Z,59.27
2017-12-26T13:16:19.375Z,59.23
2017-12-26T13:17:25.101Z,59.21
2017-12-26T13:18:30.833Z,59.19
2017-12-26T13:19:36.693Z,59.23
2017-12-26T13:20:43.956Z,59.35
2017-12-26T13:21:50.642Z,59.37
2017-12-26T13:22:56.461Z,59.40
2017-12-26T13:24:02.006Z,59.25
2017-12-26T13:25:07.737Z,59.20
2017-12-26T13:26:13.495Z,59.28
2017-12-26T13:27:19.264Z,59.25
2017-12-26T13:28:25.749Z,59.26
2017-12-26T13:29:31.530Z,59.35
2017-12-26T13:30:37.337Z,59.51
2017-12-26T13:31:43.240Z,59.49
2017-12-26T13:32:55.560Z,59.54
2017-12-26T13:34:02.051Z,59.62
2017-12-26T13:35:07.780Z,59.77
2017-12-26T13:36:13.510Z,59.85
2017-12-26T13:37:19.323Z,60.12
2017-12-26T13:38:25.888Z,60.33
2017-12-26T13:39:32.396Z,60.40
2017-12-26T13:40:38.143Z,60.52
2017-12-26T13:41:43.891Z,60.62
2017-12-26T13:42:49.633Z,60.82
2017-12-26T13:43:55.414Z,60.92
2017-12-26T13:45:01.951Z,61.22
2017-12-26T13:46:08.473Z,61.65
2017-12-26T13:47:14.343Z,62.48
2017-12-26T13:48:20.137Z,62.90
2017-12-26T13:49:26.058Z,63.79
2017-12-26T13:50:31.781Z,64.90
2017-12-26T13:51:37.834Z,65.70
2017-12-26T13:52:43.592Z,66.26
2017-12-26T13:53:50.146Z,66.15
2017-12-26T13:54:57.411Z,65.16
2017-12-26T13:56:02.894Z,64.18
2017-12-26T13:57:08.640Z,64.23
2017-12-26T13:58:14.429Z,64.09
2017-12-26T13:59:20.313Z,64.54
2017-12-26T14:00:26.974Z,64.61
2017-12-26T14:01:33.457Z,64.70
2017-12-26T14:02:39.231Z,65.10
2017-12-26T14:03:44.945Z,65.02
2017-12-26T14:04:50.666Z,65.28
2017-12-26T14:05:56.408Z,65.83
2017-12-26T14:07:02.143Z,66.11
2017-12-26T14:08:07.864Z,65.88
2017-12-26T14:09:13.594Z,65.71